sensor_id;sensor_type;location;lat;lon;timestamp;P1;durP1;ratioP1;P2;durP2;ratioP2
23370;SDS011;11858;51.056;3.712;2024-02-23T00:01:03;2.63;;;2.47;;
23370;SDS011;11858;51.056;3.712;2024-02-23T00:03:29;2.50;;;2.40;;
23370;SDS011;11858;51.056;3.712;2024-02-23T00:05:55;4.60;;;3.03;;
23370;SDS011;11858;51.056;3.712;2024-02-23T00:08:21;2.55;;;2.45;;
23370;SDS011;11858;51.056;3.712;2024-02-23T00:10:47;2.67;;;2.42;;
23370;SDS011;11858;51.056;3.712;2024-02-23T00:13:12;7.90;;;4.40;;
23370;SDS011;11858;51.056;3.712;2024-02-23T00:15:38;2.60;;;2.50;;
23370;SDS011;11858;51.056;3.712;2024-02-23T00:18:04;5.93;;;3.47;;
23370;SDS011;11858;51.056;3.712;2024-02-23T00:20:31;4.28;;;3.40;;
23370;SDS011;11858;51.056;3.712;2024-02-23T00:22:56;13.43;;;3.33;;
23370;SDS011;11858;51.056;3.712;2024-02-23T00:25:22;14.30;;;4.00;;
23370;SDS011;11858;51.056;3.712;2024-02-23T00:27:49;8.90;;;3.35;;
23370;SDS011;11858;51.056;3.712;2024-02-23T00:30:15;3.10;;;2.90;;
23370;SDS011;11858;51.056;3.712;2024-02-23T00:32:41;6.40;;;3.45;;
23370;SDS011;11858;51.056;3.712;2024-02-23T00:35:06;11.20;;;4.45;;
23370;SDS011;11858;51.056;3.712;2024-02-23T00:37:32;3.20;;;3.00;;
23370;SDS011;11858;51.056;3.712;2024-02-23T00:40:03;4.22;;;3.17;;
23370;SDS011;11858;51.056;3.712;2024-02-23T00:42:30;4.18;;;3.05;;
23370;SDS011;11858;51.056;3.712;2024-02-23T00:44:56;3.70;;;3.40;;
23370;SDS011;11858;51.056;3.712;2024-02-23T00:47:22;4.80;;;2.85;;
23370;SDS011;11858;51.056;3.712;2024-02-23T00:49:48;2.85;;;2.65;;
23370;SDS011;11858;51.056;3.712;2024-02-23T00:52:14;3.38;;;3.03;;
23370;SDS011;11858;51.056;3.712;2024-02-23T00:54:40;6.03;;;2.78;;
23370;SDS011;11858;51.056;3.712;2024-02-23T00:57:06;7.03;;;3.65;;
23370;SDS011;11858;51.056;3.712;2024-02-23T00:59:32;2.92;;;2.67;;
23370;SDS011;11858;51.056;3.712;2024-02-23T01:01:58;2.30;;;2.20;;
23370;SDS011;11858;51.056;3.712;2024-02-23T01:04:24;2.70;;;2.50;;
23370;SDS011;11858;51.056;3.712;2024-02-23T01:06:49;2.95;;;2.75;;
23370;SDS011;11858;51.056;3.712;2024-02-23T01:09:15;2.58;;;2.33;;
23370;SDS011;11858;51.056;3.712;2024-02-23T01:11:45;2.65;;;2.45;;
23370;SDS011;11858;51.056;3.712;2024-02-23T01:14:13;8.35;;;3.13;;
23370;SDS011;11858;51.056;3.712;2024-02-23T01:16:39;4.43;;;2.75;;
23370;SDS011;11858;51.056;3.712;2024-02-23T01:19:05;2.13;;;1.98;;
23370;SDS011;11858;51.056;3.712;2024-02-23T01:21:31;2.40;;;2.10;;
23370;SDS011;11858;51.056;3.712;2024-02-23T01:23:57;8.27;;;2.08;;
23370;SDS011;11858;51.056;3.712;2024-02-23T01:26:23;2.00;;;1.90;;
23370;SDS011;11858;51.056;3.712;2024-02-23T01:28:49;2.40;;;2.20;;
23370;SDS011;11858;51.056;3.712;2024-02-23T01:31:14;5.63;;;2.80;;
23370;SDS011;11858;51.056;3.712;2024-02-23T01:33:40;2.20;;;2.10;;
23370;SDS011;11858;51.056;3.712;2024-02-23T01:36:06;8.25;;;2.72;;
23370;SDS011;11858;51.056;3.712;2024-02-23T01:38:32;9.30;;;2.55;;
23370;SDS011;11858;51.056;3.712;2024-02-23T01:40:59;2.65;;;2.45;;
23370;SDS011;11858;51.056;3.712;2024-02-23T01:43:25;2.22;;;2.13;;
23370;SDS011;11858;51.056;3.712;2024-02-23T01:45:51;2.97;;;2.53;;
23370;SDS011;11858;51.056;3.712;2024-02-23T01:48:17;3.20;;;2.40;;
23370;SDS011;11858;51.056;3.712;2024-02-23T01:50:44;6.53;;;3.13;;
23370;SDS011;11858;51.056;3.712;2024-02-23T01:53:10;7.60;;;3.60;;
23370;SDS011;11858;51.056;3.712;2024-02-23T01:55:43;2.53;;;2.38;;
23370;SDS011;11858;51.056;3.712;2024-02-23T01:58:11;11.43;;;3.63;;
23370;SDS011;11858;51.056;3.712;2024-02-23T02:00:37;3.08;;;2.75;;
23370;SDS011;11858;51.056;3.712;2024-02-23T02:03:03;7.78;;;3.10;;
23370;SDS011;11858;51.056;3.712;2024-02-23T02:05:29;9.07;;;3.08;;
23370;SDS011;11858;51.056;3.712;2024-02-23T02:07:55;2.83;;;2.63;;
23370;SDS011;11858;51.056;3.712;2024-02-23T02:10:24;2.60;;;2.50;;
23370;SDS011;11858;51.056;3.712;2024-02-23T02:12:50;7.88;;;3.78;;
23370;SDS011;11858;51.056;3.712;2024-02-23T02:15:16;3.00;;;2.90;;
23370;SDS011;11858;51.056;3.712;2024-02-23T02:17:42;3.20;;;3.00;;
23370;SDS011;11858;51.056;3.712;2024-02-23T02:20:11;16.15;;;4.07;;
23370;SDS011;11858;51.056;3.712;2024-02-23T02:22:40;5.85;;;3.70;;
23370;SDS011;11858;51.056;3.712;2024-02-23T02:25:06;2.90;;;2.80;;
23370;SDS011;11858;51.056;3.712;2024-02-23T02:27:32;3.85;;;3.47;;
23370;SDS011;11858;51.056;3.712;2024-02-23T02:29:58;3.88;;;3.13;;
23370;SDS011;11858;51.056;3.712;2024-02-23T02:32:24;13.02;;;4.45;;
23370;SDS011;11858;51.056;3.712;2024-02-23T02:34:50;3.17;;;2.92;;
23370;SDS011;11858;51.056;3.712;2024-02-23T02:37:15;3.67;;;3.40;;
23370;SDS011;11858;51.056;3.712;2024-02-23T02:39:41;13.43;;;4.10;;
23370;SDS011;11858;51.056;3.712;2024-02-23T02:42:07;6.75;;;3.20;;
23370;SDS011;11858;51.056;3.712;2024-02-23T02:44:33;4.05;;;3.42;;
23370;SDS011;11858;51.056;3.712;2024-02-23T02:46:59;9.43;;;4.00;;
23370;SDS011;11858;51.056;3.712;2024-02-23T02:49:25;4.47;;;2.95;;
23370;SDS011;11858;51.056;3.712;2024-02-23T02:51:51;11.52;;;4.05;;
23370;SDS011;11858;51.056;3.712;2024-02-23T02:54:17;2.80;;;2.70;;
23370;SDS011;11858;51.056;3.712;2024-02-23T02:56:43;5.75;;;3.53;;
23370;SDS011;11858;51.056;3.712;2024-02-23T02:59:11;6.05;;;2.90;;
23370;SDS011;11858;51.056;3.712;2024-02-23T03:01:37;2.72;;;2.63;;
23370;SDS011;11858;51.056;3.712;2024-02-23T03:04:03;3.75;;;3.45;;
23370;SDS011;11858;51.056;3.712;2024-02-23T03:06:29;10.88;;;4.10;;
23370;SDS011;11858;51.056;3.712;2024-02-23T03:08:55;7.57;;;3.75;;
23370;SDS011;11858;51.056;3.712;2024-02-23T03:11:20;4.47;;;3.20;;
23370;SDS011;11858;51.056;3.712;2024-02-23T03:13:46;8.88;;;4.03;;
23370;SDS011;11858;51.056;3.712;2024-02-23T03:16:19;8.35;;;3.75;;
23370;SDS011;11858;51.056;3.712;2024-02-23T03:18:46;4.38;;;3.25;;
23370;SDS011;11858;51.056;3.712;2024-02-23T03:21:12;3.20;;;2.95;;
23370;SDS011;11858;51.056;3.712;2024-02-23T03:23:40;3.92;;;3.72;;
23370;SDS011;11858;51.056;3.712;2024-02-23T03:26:06;3.30;;;3.10;;
23370;SDS011;11858;51.056;3.712;2024-02-23T03:28:33;5.05;;;3.30;;
23370;SDS011;11858;51.056;3.712;2024-02-23T03:30:59;3.90;;;3.60;;
23370;SDS011;11858;51.056;3.712;2024-02-23T03:33:25;8.02;;;3.40;;
23370;SDS011;11858;51.056;3.712;2024-02-23T03:35:51;4.82;;;3.53;;
23370;SDS011;11858;51.056;3.712;2024-02-23T03:38:17;3.25;;;3.05;;
23370;SDS011;11858;51.056;3.712;2024-02-23T03:40:43;10.55;;;3.80;;
23370;SDS011;11858;51.056;3.712;2024-02-23T03:43:09;4.28;;;3.60;;
23370;SDS011;11858;51.056;3.712;2024-02-23T03:45:34;4.38;;;3.70;;
23370;SDS011;11858;51.056;3.712;2024-02-23T03:48:00;9.10;;;3.42;;
23370;SDS011;11858;51.056;3.712;2024-02-23T03:50:28;6.50;;;3.50;;
23370;SDS011;11858;51.056;3.712;2024-02-23T03:52:54;2.90;;;2.80;;
23370;SDS011;11858;51.056;3.712;2024-02-23T03:55:20;12.30;;;3.35;;
23370;SDS011;11858;51.056;3.712;2024-02-23T03:57:47;7.35;;;4.00;;
23370;SDS011;11858;51.056;3.712;2024-02-23T04:00:13;9.02;;;4.82;;
23370;SDS011;11858;51.056;3.712;2024-02-23T04:02:39;9.77;;;4.30;;
23370;SDS011;11858;51.056;3.712;2024-02-23T04:05:05;5.75;;;3.60;;
23370;SDS011;11858;51.056;3.712;2024-02-23T04:07:31;11.07;;;4.22;;
23370;SDS011;11858;51.056;3.712;2024-02-23T04:09:57;7.13;;;4.15;;
23370;SDS011;11858;51.056;3.712;2024-02-23T04:12:24;6.40;;;3.60;;
23370;SDS011;11858;51.056;3.712;2024-02-23T04:14:49;4.15;;;3.58;;
23370;SDS011;11858;51.056;3.712;2024-02-23T04:17:16;3.30;;;3.10;;
23370;SDS011;11858;51.056;3.712;2024-02-23T04:19:42;9.50;;;5.10;;
23370;SDS011;11858;51.056;3.712;2024-02-23T04:22:08;12.10;;;4.07;;
23370;SDS011;11858;51.056;3.712;2024-02-23T04:24:38;10.18;;;4.60;;
23370;SDS011;11858;51.056;3.712;2024-02-23T04:27:05;3.70;;;3.50;;
23370;SDS011;11858;51.056;3.712;2024-02-23T04:29:31;9.68;;;4.68;;
23370;SDS011;11858;51.056;3.712;2024-02-23T04:31:57;3.70;;;3.50;;
23370;SDS011;11858;51.056;3.712;2024-02-23T04:34:24;3.85;;;3.65;;
23370;SDS011;11858;51.056;3.712;2024-02-23T04:36:50;7.03;;;4.22;;
23370;SDS011;11858;51.056;3.712;2024-02-23T04:39:16;3.35;;;3.15;;
23370;SDS011;11858;51.056;3.712;2024-02-23T04:41:42;5.82;;;4.43;;
23370;SDS011;11858;51.056;3.712;2024-02-23T04:44:08;4.55;;;3.65;;
23370;SDS011;11858;51.056;3.712;2024-02-23T04:46:34;10.75;;;5.00;;
23370;SDS011;11858;51.056;3.712;2024-02-23T04:49:00;3.40;;;3.20;;
23370;SDS011;11858;51.056;3.712;2024-02-23T04:51:26;4.15;;;3.90;;
23370;SDS011;11858;51.056;3.712;2024-02-23T04:53:52;6.25;;;4.05;;
23370;SDS011;11858;51.056;3.712;2024-02-23T04:56:18;3.40;;;3.20;;
23370;SDS011;11858;51.056;3.712;2024-02-23T04:58:44;5.25;;;3.70;;
23370;SDS011;11858;51.056;3.712;2024-02-23T05:01:10;10.00;;;4.00;;
23370;SDS011;11858;51.056;3.712;2024-02-23T05:03:36;12.80;;;4.78;;
23370;SDS011;11858;51.056;3.712;2024-02-23T05:06:02;4.15;;;3.75;;
23370;SDS011;11858;51.056;3.712;2024-02-23T05:08:29;11.45;;;5.30;;
23370;SDS011;11858;51.056;3.712;2024-02-23T05:10:56;5.85;;;3.78;;
23370;SDS011;11858;51.056;3.712;2024-02-23T05:13:22;11.82;;;4.90;;
23370;SDS011;11858;51.056;3.712;2024-02-23T05:15:48;3.40;;;3.20;;
23370;SDS011;11858;51.056;3.712;2024-02-23T05:18:14;5.20;;;4.05;;
23370;SDS011;11858;51.056;3.712;2024-02-23T05:20:39;3.30;;;3.10;;
23370;SDS011;11858;51.056;3.712;2024-02-23T05:23:05;4.70;;;3.80;;
23370;SDS011;11858;51.056;3.712;2024-02-23T05:25:31;6.28;;;4.30;;
23370;SDS011;11858;51.056;3.712;2024-02-23T05:27:57;7.65;;;4.38;;
23370;SDS011;11858;51.056;3.712;2024-02-23T05:30:22;3.92;;;3.63;;
23370;SDS011;11858;51.056;3.712;2024-02-23T05:32:48;7.50;;;4.03;;
23370;SDS011;11858;51.056;3.712;2024-02-23T05:35:14;10.90;;;4.93;;
23370;SDS011;11858;51.056;3.712;2024-02-23T05:37:41;3.65;;;3.35;;
23370;SDS011;11858;51.056;3.712;2024-02-23T05:40:07;3.67;;;3.47;;
23370;SDS011;11858;51.056;3.712;2024-02-23T05:42:36;10.20;;;4.65;;
23370;SDS011;11858;51.056;3.712;2024-02-23T05:45:03;6.85;;;3.97;;
23370;SDS011;11858;51.056;3.712;2024-02-23T05:50:07;11.55;;;4.78;;
23370;SDS011;11858;51.056;3.712;2024-02-23T05:52:34;8.70;;;3.90;;
23370;SDS011;11858;51.056;3.712;2024-02-23T05:55:01;13.23;;;5.07;;
23370;SDS011;11858;51.056;3.712;2024-02-23T05:57:30;3.80;;;3.30;;
23370;SDS011;11858;51.056;3.712;2024-02-23T05:59:56;5.50;;;3.58;;
23370;SDS011;11858;51.056;3.712;2024-02-23T06:02:22;13.07;;;4.88;;
23370;SDS011;11858;51.056;3.712;2024-02-23T06:04:49;11.55;;;4.50;;
23370;SDS011;11858;51.056;3.712;2024-02-23T06:07:15;10.45;;;4.25;;
23370;SDS011;11858;51.056;3.712;2024-02-23T06:09:41;9.40;;;4.15;;
23370;SDS011;11858;51.056;3.712;2024-02-23T06:12:07;3.75;;;3.40;;
23370;SDS011;11858;51.056;3.712;2024-02-23T06:14:33;11.05;;;5.65;;
23370;SDS011;11858;51.056;3.712;2024-02-23T06:17:00;8.13;;;4.25;;
23370;SDS011;11858;51.056;3.712;2024-02-23T06:19:26;3.90;;;3.60;;
23370;SDS011;11858;51.056;3.712;2024-02-23T06:21:51;4.00;;;3.60;;
23370;SDS011;11858;51.056;3.712;2024-02-23T06:24:17;8.45;;;4.70;;
23370;SDS011;11858;51.056;3.712;2024-02-23T06:26:44;3.70;;;3.50;;
23370;SDS011;11858;51.056;3.712;2024-02-23T06:29:11;3.90;;;3.33;;
23370;SDS011;11858;51.056;3.712;2024-02-23T06:31:38;10.23;;;4.72;;
23370;SDS011;11858;51.056;3.712;2024-02-23T06:34:04;8.10;;;4.00;;
23370;SDS011;11858;51.056;3.712;2024-02-23T06:36:30;10.73;;;3.85;;
23370;SDS011;11858;51.056;3.712;2024-02-23T06:38:56;8.63;;;4.55;;
23370;SDS011;11858;51.056;3.712;2024-02-23T06:41:22;14.98;;;5.30;;
23370;SDS011;11858;51.056;3.712;2024-02-23T06:43:48;4.32;;;4.00;;
23370;SDS011;11858;51.056;3.712;2024-02-23T06:46:13;10.52;;;4.25;;
23370;SDS011;11858;51.056;3.712;2024-02-23T06:48:39;9.95;;;3.90;;
23370;SDS011;11858;51.056;3.712;2024-02-23T06:51:05;4.43;;;3.78;;
23370;SDS011;11858;51.056;3.712;2024-02-23T06:53:34;8.05;;;4.18;;
23370;SDS011;11858;51.056;3.712;2024-02-23T06:56:00;17.38;;;4.90;;
23370;SDS011;11858;51.056;3.712;2024-02-23T06:58:27;4.10;;;3.70;;
23370;SDS011;11858;51.056;3.712;2024-02-23T07:00:53;26.00;;;3.88;;
23370;SDS011;11858;51.056;3.712;2024-02-23T07:03:19;15.50;;;5.07;;
23370;SDS011;11858;51.056;3.712;2024-02-23T07:05:45;5.10;;;4.07;;
23370;SDS011;11858;51.056;3.712;2024-02-23T07:08:12;6.43;;;3.92;;
23370;SDS011;11858;51.056;3.712;2024-02-23T07:10:38;11.73;;;5.45;;
23370;SDS011;11858;51.056;3.712;2024-02-23T07:13:04;14.05;;;4.90;;
23370;SDS011;11858;51.056;3.712;2024-02-23T07:15:29;4.38;;;4.07;;
23370;SDS011;11858;51.056;3.712;2024-02-23T07:17:57;8.23;;;4.38;;
23370;SDS011;11858;51.056;3.712;2024-02-23T07:20:23;8.20;;;3.97;;
23370;SDS011;11858;51.056;3.712;2024-02-23T07:22:49;3.80;;;3.60;;
23370;SDS011;11858;51.056;3.712;2024-02-23T07:25:18;11.43;;;4.15;;
23370;SDS011;11858;51.056;3.712;2024-02-23T07:27:47;6.18;;;3.53;;
23370;SDS011;11858;51.056;3.712;2024-02-23T07:30:16;8.13;;;3.75;;
23370;SDS011;11858;51.056;3.712;2024-02-23T07:32:42;9.07;;;4.45;;
23370;SDS011;11858;51.056;3.712;2024-02-23T07:35:11;5.53;;;3.33;;
23370;SDS011;11858;51.056;3.712;2024-02-23T07:37:37;6.85;;;2.88;;
23370;SDS011;11858;51.056;3.712;2024-02-23T07:40:03;2.40;;;2.30;;
23370;SDS011;11858;51.056;3.712;2024-02-23T07:42:33;10.85;;;7.57;;
23370;SDS011;11858;51.056;3.712;2024-02-23T07:47:29;3.47;;;3.10;;
23370;SDS011;11858;51.056;3.712;2024-02-23T07:49:58;4.38;;;3.20;;
23370;SDS011;11858;51.056;3.712;2024-02-23T07:52:24;14.25;;;4.35;;
23370;SDS011;11858;51.056;3.712;2024-02-23T07:54:51;12.40;;;4.18;;
23370;SDS011;11858;51.056;3.712;2024-02-23T07:57:18;2.88;;;2.72;;
23370;SDS011;11858;51.056;3.712;2024-02-23T07:59:44;9.45;;;3.92;;
23370;SDS011;11858;51.056;3.712;2024-02-23T08:02:10;9.43;;;4.40;;
23370;SDS011;11858;51.056;3.712;2024-02-23T08:04:36;5.32;;;3.00;;
23370;SDS011;11858;51.056;3.712;2024-02-23T08:07:03;3.20;;;3.00;;
23370;SDS011;11858;51.056;3.712;2024-02-23T08:09:29;4.07;;;3.20;;
23370;SDS011;11858;51.056;3.712;2024-02-23T08:11:55;9.05;;;3.88;;
23370;SDS011;11858;51.056;3.712;2024-02-23T08:14:21;7.85;;;4.18;;
23370;SDS011;11858;51.056;3.712;2024-02-23T08:16:47;10.02;;;4.63;;
23370;SDS011;11858;51.056;3.712;2024-02-23T08:19:13;10.35;;;3.90;;
23370;SDS011;11858;51.056;3.712;2024-02-23T08:21:39;8.85;;;3.97;;
23370;SDS011;11858;51.056;3.712;2024-02-23T08:24:06;3.17;;;3.00;;
23370;SDS011;11858;51.056;3.712;2024-02-23T08:26:32;5.38;;;3.47;;
23370;SDS011;11858;51.056;3.712;2024-02-23T08:28:58;10.20;;;3.85;;
23370;SDS011;11858;51.056;3.712;2024-02-23T08:31:24;6.30;;;4.15;;
23370;SDS011;11858;51.056;3.712;2024-02-23T08:33:50;5.10;;;3.42;;
23370;SDS011;11858;51.056;3.712;2024-02-23T08:36:16;12.23;;;4.38;;
23370;SDS011;11858;51.056;3.712;2024-02-23T08:38:42;3.80;;;3.28;;
23370;SDS011;11858;51.056;3.712;2024-02-23T08:41:07;7.15;;;4.05;;
23370;SDS011;11858;51.056;3.712;2024-02-23T08:43:33;5.28;;;3.72;;
23370;SDS011;11858;51.056;3.712;2024-02-23T08:45:59;6.18;;;3.70;;
23370;SDS011;11858;51.056;3.712;2024-02-23T08:48:25;5.82;;;4.03;;
23370;SDS011;11858;51.056;3.712;2024-02-23T08:50:51;5.55;;;4.00;;
23370;SDS011;11858;51.056;3.712;2024-02-23T08:53:16;8.75;;;4.32;;
23370;SDS011;11858;51.056;3.712;2024-02-23T08:55:42;7.53;;;4.68;;
23370;SDS011;11858;51.056;3.712;2024-02-23T08:58:08;4.07;;;3.67;;
23370;SDS011;11858;51.056;3.712;2024-02-23T09:00:34;3.58;;;3.38;;
23370;SDS011;11858;51.056;3.712;2024-02-23T09:03:02;3.45;;;3.25;;
23370;SDS011;11858;51.056;3.712;2024-02-23T09:05:28;10.70;;;4.13;;
23370;SDS011;11858;51.056;3.712;2024-02-23T09:07:55;14.90;;;4.70;;
23370;SDS011;11858;51.056;3.712;2024-02-23T09:10:20;3.97;;;3.47;;
23370;SDS011;11858;51.056;3.712;2024-02-23T09:12:46;4.22;;;3.67;;
23370;SDS011;11858;51.056;3.712;2024-02-23T09:15:12;3.75;;;3.53;;
23370;SDS011;11858;51.056;3.712;2024-02-23T09:17:39;7.47;;;4.15;;
23370;SDS011;11858;51.056;3.712;2024-02-23T09:20:06;4.00;;;3.70;;
23370;SDS011;11858;51.056;3.712;2024-02-23T09:22:32;4.85;;;3.90;;
23370;SDS011;11858;51.056;3.712;2024-02-23T09:24:58;7.22;;;4.55;;
23370;SDS011;11858;51.056;3.712;2024-02-23T09:27:24;4.70;;;3.88;;
23370;SDS011;11858;51.056;3.712;2024-02-23T09:29:49;3.95;;;3.72;;
23370;SDS011;11858;51.056;3.712;2024-02-23T09:32:15;4.43;;;4.10;;
23370;SDS011;11858;51.056;3.712;2024-02-23T09:34:41;8.25;;;4.32;;
23370;SDS011;11858;51.056;3.712;2024-02-23T09:37:07;6.95;;;4.88;;
23370;SDS011;11858;51.056;3.712;2024-02-23T09:39:33;7.43;;;4.10;;
23370;SDS011;11858;51.056;3.712;2024-02-23T09:41:59;5.00;;;4.40;;
23370;SDS011;11858;51.056;3.712;2024-02-23T09:44:32;4.05;;;3.55;;
23370;SDS011;11858;51.056;3.712;2024-02-23T09:47:03;5.60;;;4.03;;
23370;SDS011;11858;51.056;3.712;2024-02-23T09:49:39;3.50;;;3.30;;
23370;SDS011;11858;51.056;3.712;2024-02-23T09:52:09;6.57;;;4.20;;
23370;SDS011;11858;51.056;3.712;2024-02-23T09:54:36;3.65;;;3.45;;
23370;SDS011;11858;51.056;3.712;2024-02-23T09:57:04;3.83;;;3.53;;
23370;SDS011;11858;51.056;3.712;2024-02-23T09:59:34;3.55;;;3.25;;
23370;SDS011;11858;51.056;3.712;2024-02-23T10:02:00;10.32;;;4.20;;
23370;SDS011;11858;51.056;3.712;2024-02-23T10:04:28;4.05;;;3.75;;
23370;SDS011;11858;51.056;3.712;2024-02-23T10:06:56;13.50;;;5.03;;
23370;SDS011;11858;51.056;3.712;2024-02-23T10:09:22;6.80;;;4.60;;
23370;SDS011;11858;51.056;3.712;2024-02-23T10:11:54;3.70;;;3.50;;
23370;SDS011;11858;51.056;3.712;2024-02-23T10:14:20;3.80;;;3.60;;
23370;SDS011;11858;51.056;3.712;2024-02-23T10:16:46;3.90;;;3.70;;
23370;SDS011;11858;51.056;3.712;2024-02-23T10:19:13;6.53;;;5.07;;
23370;SDS011;11858;51.056;3.712;2024-02-23T10:21:39;4.85;;;4.40;;
23370;SDS011;11858;51.056;3.712;2024-02-23T10:24:05;7.68;;;5.22;;
23370;SDS011;11858;51.056;3.712;2024-02-23T10:26:31;9.35;;;5.57;;
23370;SDS011;11858;51.056;3.712;2024-02-23T10:28:57;9.23;;;4.68;;
23370;SDS011;11858;51.056;3.712;2024-02-23T10:31:24;7.28;;;5.68;;
23370;SDS011;11858;51.056;3.712;2024-02-23T10:33:50;10.00;;;5.40;;
23370;SDS011;11858;51.056;3.712;2024-02-23T10:36:18;6.15;;;5.03;;
23370;SDS011;11858;51.056;3.712;2024-02-23T10:38:45;8.45;;;5.63;;
23370;SDS011;11858;51.056;3.712;2024-02-23T10:41:12;6.45;;;5.60;;
23370;SDS011;11858;51.056;3.712;2024-02-23T10:43:48;7.50;;;5.50;;
23370;SDS011;11858;51.056;3.712;2024-02-23T10:46:14;14.30;;;6.50;;
23370;SDS011;11858;51.056;3.712;2024-02-23T10:48:41;5.53;;;5.22;;
23370;SDS011;11858;51.056;3.712;2024-02-23T10:51:07;8.07;;;5.68;;
23370;SDS011;11858;51.056;3.712;2024-02-23T10:53:35;7.10;;;5.40;;
23370;SDS011;11858;51.056;3.712;2024-02-23T10:56:02;6.20;;;5.60;;
23370;SDS011;11858;51.056;3.712;2024-02-23T10:58:30;6.13;;;5.50;;
23370;SDS011;11858;51.056;3.712;2024-02-23T11:01:02;6.07;;;5.60;;
23370;SDS011;11858;51.056;3.712;2024-02-23T11:03:31;5.30;;;5.00;;
23370;SDS011;11858;51.056;3.712;2024-02-23T11:05:59;5.40;;;4.97;;
23370;SDS011;11858;51.056;3.712;2024-02-23T11:08:27;8.02;;;6.07;;
23370;SDS011;11858;51.056;3.712;2024-02-23T11:11:09;8.43;;;5.57;;
23370;SDS011;11858;51.056;3.712;2024-02-23T11:13:38;5.40;;;4.90;;
23370;SDS011;11858;51.056;3.712;2024-02-23T11:16:05;5.22;;;4.93;;
23370;SDS011;11858;51.056;3.712;2024-02-23T11:18:34;5.65;;;5.20;;
23370;SDS011;11858;51.056;3.712;2024-02-23T11:21:01;44.50;;;6.50;;
23370;SDS011;11858;51.056;3.712;2024-02-23T11:26:27;6.93;;;5.47;;
23370;SDS011;11858;51.056;3.712;2024-02-23T11:28:53;6.57;;;5.60;;
23370;SDS011;11858;51.056;3.712;2024-02-23T11:31:19;5.10;;;4.80;;
23370;SDS011;11858;51.056;3.712;2024-02-23T11:36:21;5.30;;;5.00;;
23370;SDS011;11858;51.056;3.712;2024-02-23T11:38:49;5.82;;;5.30;;
23370;SDS011;11858;51.056;3.712;2024-02-23T11:41:22;5.20;;;4.90;;
23370;SDS011;11858;51.056;3.712;2024-02-23T11:43:49;8.30;;;5.32;;
23370;SDS011;11858;51.056;3.712;2024-02-23T11:46:16;4.82;;;4.43;;
23370;SDS011;11858;51.056;3.712;2024-02-23T11:48:42;4.25;;;3.95;;
23370;SDS011;11858;51.056;3.712;2024-02-23T11:51:09;4.10;;;3.90;;
23370;SDS011;11858;51.056;3.712;2024-02-23T11:53:38;4.03;;;3.83;;
23370;SDS011;11858;51.056;3.712;2024-02-23T11:56:05;4.65;;;4.35;;
23370;SDS011;11858;51.056;3.712;2024-02-23T11:58:32;5.72;;;5.20;;
23370;SDS011;11858;51.056;3.712;2024-02-23T12:00:59;5.47;;;5.07;;
23370;SDS011;11858;51.056;3.712;2024-02-23T12:03:27;5.07;;;4.78;;
23370;SDS011;11858;51.056;3.712;2024-02-23T12:05:55;5.97;;;5.47;;
23370;SDS011;11858;51.056;3.712;2024-02-23T12:08:25;5.68;;;5.20;;
23370;SDS011;11858;51.056;3.712;2024-02-23T12:10:53;5.68;;;5.38;;
23370;SDS011;11858;51.056;3.712;2024-02-23T12:13:20;5.93;;;5.43;;
23370;SDS011;11858;51.056;3.712;2024-02-23T12:15:47;5.25;;;4.95;;
23370;SDS011;11858;51.056;3.712;2024-02-23T12:18:13;5.35;;;5.03;;
23370;SDS011;11858;51.056;3.712;2024-02-23T12:20:39;5.57;;;5.20;;
23370;SDS011;11858;51.056;3.712;2024-02-23T12:23:05;7.63;;;6.13;;
23370;SDS011;11858;51.056;3.712;2024-02-23T12:25:33;8.80;;;5.88;;
23370;SDS011;11858;51.056;3.712;2024-02-23T12:27:59;5.18;;;4.88;;
23370;SDS011;11858;51.056;3.712;2024-02-23T12:30:26;4.80;;;4.50;;
23370;SDS011;11858;51.056;3.712;2024-02-23T12:33:03;6.32;;;5.72;;
23370;SDS011;11858;51.056;3.712;2024-02-23T12:35:33;7.95;;;6.63;;
23370;SDS011;11858;51.056;3.712;2024-02-23T12:38:00;7.85;;;7.18;;
23370;SDS011;11858;51.056;3.712;2024-02-23T12:40:26;9.50;;;8.80;;
23370;SDS011;11858;51.056;3.712;2024-02-23T12:42:52;10.57;;;9.82;;
23370;SDS011;11858;51.056;3.712;2024-02-23T12:45:18;12.43;;;11.25;;
23370;SDS011;11858;51.056;3.712;2024-02-23T12:47:44;11.93;;;10.98;;
23370;SDS011;11858;51.056;3.712;2024-02-23T12:50:09;11.32;;;10.23;;
23370;SDS011;11858;51.056;3.712;2024-02-23T12:52:36;9.40;;;8.80;;
23370;SDS011;11858;51.056;3.712;2024-02-23T12:55:02;12.07;;;8.55;;
23370;SDS011;11858;51.056;3.712;2024-02-23T12:57:28;12.77;;;8.98;;
23370;SDS011;11858;51.056;3.712;2024-02-23T12:59:54;8.43;;;7.82;;
23370;SDS011;11858;51.056;3.712;2024-02-23T13:02:20;9.88;;;9.18;;
23370;SDS011;11858;51.056;3.712;2024-02-23T13:04:46;11.77;;;10.65;;
23370;SDS011;11858;51.056;3.712;2024-02-23T13:07:17;11.40;;;10.70;;
23370;SDS011;11858;51.056;3.712;2024-02-23T13:09:43;12.48;;;11.25;;
23370;SDS011;11858;51.056;3.712;2024-02-23T13:12:09;13.23;;;12.20;;
23370;SDS011;11858;51.056;3.712;2024-02-23T13:14:35;16.42;;;15.25;;
23370;SDS011;11858;51.056;3.712;2024-02-23T13:17:01;18.98;;;17.50;;
23370;SDS011;11858;51.056;3.712;2024-02-23T13:19:26;22.00;;;20.13;;
23370;SDS011;11858;51.056;3.712;2024-02-23T13:21:52;24.42;;;22.45;;
23370;SDS011;11858;51.056;3.712;2024-02-23T13:24:18;24.60;;;22.70;;
23370;SDS011;11858;51.056;3.712;2024-02-23T13:26:44;24.85;;;23.05;;
23370;SDS011;11858;51.056;3.712;2024-02-23T13:29:10;25.65;;;23.30;;
23370;SDS011;11858;51.056;3.712;2024-02-23T13:31:36;24.80;;;22.80;;
23370;SDS011;11858;51.056;3.712;2024-02-23T13:34:03;24.83;;;23.02;;
23370;SDS011;11858;51.056;3.712;2024-02-23T13:36:29;25.58;;;23.13;;
23370;SDS011;11858;51.056;3.712;2024-02-23T13:38:55;24.50;;;22.60;;
23370;SDS011;11858;51.056;3.712;2024-02-23T13:41:21;24.30;;;22.50;;
23370;SDS011;11858;51.056;3.712;2024-02-23T13:43:46;24.40;;;22.50;;
23370;SDS011;11858;51.056;3.712;2024-02-23T13:46:12;24.33;;;22.52;;
23370;SDS011;11858;51.056;3.712;2024-02-23T13:48:38;24.25;;;22.45;;
23370;SDS011;11858;51.056;3.712;2024-02-23T13:51:04;25.02;;;23.23;;
23370;SDS011;11858;51.056;3.712;2024-02-23T13:53:30;25.00;;;23.10;;
23370;SDS011;11858;51.056;3.712;2024-02-23T13:55:57;24.25;;;22.45;;
23370;SDS011;11858;51.056;3.712;2024-02-23T13:58:24;24.08;;;22.35;;
23370;SDS011;11858;51.056;3.712;2024-02-23T14:00:49;24.90;;;22.95;;
23370;SDS011;11858;51.056;3.712;2024-02-23T14:03:16;27.20;;;24.23;;
23370;SDS011;11858;51.056;3.712;2024-02-23T14:08:12;24.08;;;22.23;;
23370;SDS011;11858;51.056;3.712;2024-02-23T14:10:38;25.77;;;23.52;;
23370;SDS011;11858;51.056;3.712;2024-02-23T14:13:05;25.83;;;23.83;;
23370;SDS011;11858;51.056;3.712;2024-02-23T14:15:31;24.30;;;22.60;;
23370;SDS011;11858;51.056;3.712;2024-02-23T14:17:57;26.45;;;24.45;;
23370;SDS011;11858;51.056;3.712;2024-02-23T14:20:23;25.17;;;23.38;;
23370;SDS011;11858;51.056;3.712;2024-02-23T14:22:49;23.10;;;21.40;;
23370;SDS011;11858;51.056;3.712;2024-02-23T14:25:15;23.60;;;21.70;;
23370;SDS011;11858;51.056;3.712;2024-02-23T14:27:41;21.10;;;19.45;;
23370;SDS011;11858;51.056;3.712;2024-02-23T14:30:08;14.25;;;13.25;;
23370;SDS011;11858;51.056;3.712;2024-02-23T14:32:34;2.85;;;2.75;;
23370;SDS011;11858;51.056;3.712;2024-02-23T14:35:01;2.00;;;1.90;;
23370;SDS011;11858;51.056;3.712;2024-02-23T14:37:28;1.80;;;1.70;;
23370;SDS011;11858;51.056;3.712;2024-02-23T14:39:54;1.63;;;1.60;;
23370;SDS011;11858;51.056;3.712;2024-02-23T14:42:20;2.30;;;1.50;;
23370;SDS011;11858;51.056;3.712;2024-02-23T14:44:46;4.25;;;1.77;;
23370;SDS011;11858;51.056;3.712;2024-02-23T14:47:12;2.17;;;1.50;;
23370;SDS011;11858;51.056;3.712;2024-02-23T14:49:38;1.20;;;1.20;;
23370;SDS011;11858;51.056;3.712;2024-02-23T14:52:04;1.23;;;1.23;;